sensor_id;sensor_type;location;lat;lon;timestamp;temperature;humidity
7000;DHT22;3540;53.242;10.408;2023-12-07T00:01:00;1.00;99.90
7000;DHT22;3540;53.242;10.408;2023-12-07T00:03:25;1.00;99.90
7000;DHT22;3540;53.242;10.408;2023-12-07T00:05:51;1.00;99.90
7000;DHT22;3540;53.242;10.408;2023-12-07T00:08:17;1.00;99.90
7000;DHT22;3540;53.242;10.408;2023-12-07T00:10:42;1.00;99.90
7000;DHT22;3540;53.242;10.408;2023-12-07T00:13:08;1.00;99.90
7000;DHT22;3540;53.242;10.408;2023-12-07T00:15:33;1.00;99.90
7000;DHT22;3540;53.242;10.408;2023-12-07T00:17:59;1.00;99.90
7000;DHT22;3540;53.242;10.408;2023-12-07T00:20:25;1.00;99.90
7000;DHT22;3540;53.242;10.408;2023-12-07T00:22:51;1.00;99.90
7000;DHT22;3540;53.242;10.408;2023-12-07T00:25:17;1.00;99.90
7000;DHT22;3540;53.242;10.408;2023-12-07T00:27:42;1.00;99.90
7000;DHT22;3540;53.242;10.408;2023-12-07T00:30:08;1.00;99.90
7000;DHT22;3540;53.242;10.408;2023-12-07T00:32:34;1.00;99.90
7000;DHT22;3540;53.242;10.408;2023-12-07T00:35:00;1.00;99.90
7000;DHT22;3540;53.242;10.408;2023-12-07T00:37:25;1.00;99.90
7000;DHT22;3540;53.242;10.408;2023-12-07T00:39:52;1.00;99.90
7000;DHT22;3540;53.242;10.408;2023-12-07T00:42:18;1.00;99.90
7000;DHT22;3540;53.242;10.408;2023-12-07T00:44:43;1.00;99.90
7000;DHT22;3540;53.242;10.408;2023-12-07T00:47:09;1.00;99.90
7000;DHT22;3540;53.242;10.408;2023-12-07T00:49:38;0.90;99.90
7000;DHT22;3540;53.242;10.408;2023-12-07T00:52:07;0.90;99.90
7000;DHT22;3540;53.242;10.408;2023-12-07T00:54:33;1.00;99.90
7000;DHT22;3540;53.242;10.408;2023-12-07T00:56:58;1.00;99.90
7000;DHT22;3540;53.242;10.408;2023-12-07T00:59:24;0.90;99.90
7000;DHT22;3540;53.242;10.408;2023-12-07T01:01:50;0.90;99.90
7000;DHT22;3540;53.242;10.408;2023-12-07T01:04:16;0.90;99.90
7000;DHT22;3540;53.242;10.408;2023-12-07T01:06:42;0.80;99.90
7000;DHT22;3540;53.242;10.408;2023-12-07T01:09:08;0.90;99.90
7000;DHT22;3540;53.242;10.408;2023-12-07T01:11:38;0.90;99.90
7000;DHT22;3540;53.242;10.408;2023-12-07T01:14:05;1.00;99.90
7000;DHT22;3540;53.242;10.408;2023-12-07T01:16:31;1.00;99.90
7000;DHT22;3540;53.242;10.408;2023-12-07T01:18:56;1.00;99.90
7000;DHT22;3540;53.242;10.408;2023-12-07T01:21:23;0.90;99.90
7000;DHT22;3540;53.242;10.408;2023-12-07T01:23:49;0.90;99.90
7000;DHT22;3540;53.242;10.408;2023-12-07T01:26:14;1.00;99.90
7000;DHT22;3540;53.242;10.408;2023-12-07T01:28:40;1.00;99.90
7000;DHT22;3540;53.242;10.408;2023-12-07T01:31:05;1.00;99.90
7000;DHT22;3540;53.242;10.408;2023-12-07T01:33:31;0.90;99.90
7000;DHT22;3540;53.242;10.408;2023-12-07T01:35:57;0.90;99.90
7000;DHT22;3540;53.242;10.408;2023-12-07T01:38:22;0.90;99.90
7000;DHT22;3540;53.242;10.408;2023-12-07T01:40:48;0.90;99.90
7000;DHT22;3540;53.242;10.408;2023-12-07T01:43:14;0.90;99.90
7000;DHT22;3540;53.242;10.408;2023-12-07T01:45:39;0.90;99.90
7000;DHT22;3540;53.242;10.408;2023-12-07T01:48:06;0.90;99.90
7000;DHT22;3540;53.242;10.408;2023-12-07T01:50:32;0.90;99.90
7000;DHT22;3540;53.242;10.408;2023-12-07T01:53:01;0.90;99.90
7000;DHT22;3540;53.242;10.408;2023-12-07T01:55:27;0.90;99.90
7000;DHT22;3540;53.242;10.408;2023-12-07T01:57:54;1.00;99.90
7000;DHT22;3540;53.242;10.408;2023-12-07T02:00:20;1.00;99.90
7000;DHT22;3540;53.242;10.408;2023-12-07T02:02:46;1.00;99.90
7000;DHT22;3540;53.242;10.408;2023-12-07T02:05:15;1.00;99.90
7000;DHT22;3540;53.242;10.408;2023-12-07T02:07:41;1.00;99.90
7000;DHT22;3540;53.242;10.408;2023-12-07T02:10:07;1.00;99.90
7000;DHT22;3540;53.242;10.408;2023-12-07T02:12:33;1.00;99.90
7000;DHT22;3540;53.242;10.408;2023-12-07T02:15:02;1.00;99.90
7000;DHT22;3540;53.242;10.408;2023-12-07T02:23:01;1.00;99.90
7000;DHT22;3540;53.242;10.408;2023-12-07T02:25:52;1.00;99.90
7000;DHT22;3540;53.242;10.408;2023-12-07T02:28:17;1.00;99.90
7000;DHT22;3540;53.242;10.408;2023-12-07T02:30:43;1.00;99.90
7000;DHT22;3540;53.242;10.408;2023-12-07T02:33:09;1.00;99.90
7000;DHT22;3540;53.242;10.408;2023-12-07T02:35:36;1.00;99.90
7000;DHT22;3540;53.242;10.408;2023-12-07T02:38:02;1.10;99.90
7000;DHT22;3540;53.242;10.408;2023-12-07T02:40:29;1.00;99.90
7000;DHT22;3540;53.242;10.408;2023-12-07T02:42:56;1.00;99.90
7000;DHT22;3540;53.242;10.408;2023-12-07T02:45:22;1.00;99.90
7000;DHT22;3540;53.242;10.408;2023-12-07T02:47:48;1.00;99.90
7000;DHT22;3540;53.242;10.408;2023-12-07T02:50:14;1.00;99.90
7000;DHT22;3540;53.242;10.408;2023-12-07T02:52:40;1.00;99.90
7000;DHT22;3540;53.242;10.408;2023-12-07T02:55:06;1.00;99.90
7000;DHT22;3540;53.242;10.408;2023-12-07T02:57:32;1.00;99.90
7000;DHT22;3540;53.242;10.408;2023-12-07T03:00:02;1.00;99.90
7000;DHT22;3540;53.242;10.408;2023-12-07T03:02:36;1.00;99.90
7000;DHT22;3540;53.242;10.408;2023-12-07T03:05:01;1.00;99.90
7000;DHT22;3540;53.242;10.408;2023-12-07T03:07:27;1.10;99.90
7000;DHT22;3540;53.242;10.408;2023-12-07T03:09:53;1.00;99.90
7000;DHT22;3540;53.242;10.408;2023-12-07T03:12:18;1.10;99.90
7000;DHT22;3540;53.242;10.408;2023-12-07T03:14:44;1.00;99.90
7000;DHT22;3540;53.242;10.408;2023-12-07T03:17:09;1.00;99.90
7000;DHT22;3540;53.242;10.408;2023-12-07T03:19:39;1.00;99.90
7000;DHT22;3540;53.242;10.408;2023-12-07T03:22:05;1.00;99.90
7000;DHT22;3540;53.242;10.408;2023-12-07T03:24:35;1.00;99.90
7000;DHT22;3540;53.242;10.408;2023-12-07T03:27:01;1.00;99.90
7000;DHT22;3540;53.242;10.408;2023-12-07T03:29:27;1.00;99.90
7000;DHT22;3540;53.242;10.408;2023-12-07T03:31:52;1.00;99.90
7000;DHT22;3540;53.242;10.408;2023-12-07T03:34:18;1.00;99.90
7000;DHT22;3540;53.242;10.408;2023-12-07T03:36:47;1.00;99.90
7000;DHT22;3540;53.242;10.408;2023-12-07T03:39:17;1.00;99.90
7000;DHT22;3540;53.242;10.408;2023-12-07T03:41:48;1.10;99.90
7000;DHT22;3540;53.242;10.408;2023-12-07T03:44:14;1.00;99.90
7000;DHT22;3540;53.242;10.408;2023-12-07T03:46:40;1.10;99.90
7000;DHT22;3540;53.242;10.408;2023-12-07T03:49:05;1.00;99.90
7000;DHT22;3540;53.242;10.408;2023-12-07T03:51:31;1.10;99.90
7000;DHT22;3540;53.242;10.408;2023-12-07T03:53:57;1.00;99.90
7000;DHT22;3540;53.242;10.408;2023-12-07T03:56:26;1.00;99.90
7000;DHT22;3540;53.242;10.408;2023-12-07T03:58:52;1.00;99.90
7000;DHT22;3540;53.242;10.408;2023-12-07T04:01:22;1.10;99.90
7000;DHT22;3540;53.242;10.408;2023-12-07T04:03:49;1.10;99.90
7000;DHT22;3540;53.242;10.408;2023-12-07T04:06:14;1.10;99.90
7000;DHT22;3540;53.242;10.408;2023-12-07T04:08:40;1.10;99.90
7000;DHT22;3540;53.242;10.408;2023-12-07T04:11:06;1.10;99.90
7000;DHT22;3540;53.242;10.408;2023-12-07T04:13:31;1.10;99.90
7000;DHT22;3540;53.242;10.408;2023-12-07T04:15:57;1.10;99.90
7000;DHT22;3540;53.242;10.408;2023-12-07T04:18:22;1.10;99.90
7000;DHT22;3540;53.242;10.408;2023-12-07T04:20:48;1.10;99.90
7000;DHT22;3540;53.242;10.408;2023-12-07T04:23:13;1.10;99.90
7000;DHT22;3540;53.242;10.408;2023-12-07T04:25:42;1.10;99.90
7000;DHT22;3540;53.242;10.408;2023-12-07T04:28:08;1.10;99.90
7000;DHT22;3540;53.242;10.408;2023-12-07T04:30:33;1.20;99.90
7000;DHT22;3540;53.242;10.408;2023-12-07T04:32:59;1.10;99.90
7000;DHT22;3540;53.242;10.408;2023-12-07T04:35:25;1.10;99.90
7000;DHT22;3540;53.242;10.408;2023-12-07T04:37:50;1.20;99.90
7000;DHT22;3540;53.242;10.408;2023-12-07T04:40:16;1.10;99.90
7000;DHT22;3540;53.242;10.408;2023-12-07T04:42:42;1.10;99.90
7000;DHT22;3540;53.242;10.408;2023-12-07T04:45:08;1.10;99.90
7000;DHT22;3540;53.242;10.408;2023-12-07T04:47:33;1.10;99.90
7000;DHT22;3540;53.242;10.408;2023-12-07T04:49:59;1.10;99.90
7000;DHT22;3540;53.242;10.408;2023-12-07T04:52:25;1.10;99.90
7000;DHT22;3540;53.242;10.408;2023-12-07T04:54:50;1.10;99.90
7000;DHT22;3540;53.242;10.408;2023-12-07T04:57:16;1.10;99.90
7000;DHT22;3540;53.242;10.408;2023-12-07T04:59:42;1.10;99.90
7000;DHT22;3540;53.242;10.408;2023-12-07T05:02:15;1.10;99.90
7000;DHT22;3540;53.242;10.408;2023-12-07T05:04:42;1.10;99.90
7000;DHT22;3540;53.242;10.408;2023-12-07T05:07:08;1.10;99.90
7000;DHT22;3540;53.242;10.408;2023-12-07T05:09:34;1.10;99.90
7000;DHT22;3540;53.242;10.408;2023-12-07T05:11:59;1.10;99.90
7000;DHT22;3540;53.242;10.408;2023-12-07T05:14:25;1.10;99.90
7000;DHT22;3540;53.242;10.408;2023-12-07T05:16:51;1.10;99.90
7000;DHT22;3540;53.242;10.408;2023-12-07T05:19:22;1.20;99.90
7000;DHT22;3540;53.242;10.408;2023-12-07T05:21:47;1.20;99.90
7000;DHT22;3540;53.242;10.408;2023-12-07T05:24:13;1.20;99.90
7000;DHT22;3540;53.242;10.408;2023-12-07T05:26:41;1.20;99.90
7000;DHT22;3540;53.242;10.408;2023-12-07T05:29:07;1.20;99.90
7000;DHT22;3540;53.242;10.408;2023-12-07T05:31:33;1.20;99.90
7000;DHT22;3540;53.242;10.408;2023-12-07T05:33:58;1.20;99.90
7000;DHT22;3540;53.242;10.408;2023-12-07T05:36:24;1.20;99.90
7000;DHT22;3540;53.242;10.408;2023-12-07T05:38:51;1.20;99.90
7000;DHT22;3540;53.242;10.408;2023-12-07T05:41:17;1.20;99.90
7000;DHT22;3540;53.242;10.408;2023-12-07T05:43:43;1.20;99.90
7000;DHT22;3540;53.242;10.408;2023-12-07T05:46:09;1.20;99.90
7000;DHT22;3540;53.242;10.408;2023-12-07T05:48:34;1.20;99.90
7000;DHT22;3540;53.242;10.408;2023-12-07T05:51:02;1.20;99.90
7000;DHT22;3540;53.242;10.408;2023-12-07T05:53:27;1.20;99.90
7000;DHT22;3540;53.242;10.408;2023-12-07T05:55:54;1.20;99.90
7000;DHT22;3540;53.242;10.408;2023-12-07T05:58:20;1.20;99.90
7000;DHT22;3540;53.242;10.408;2023-12-07T06:00:45;1.30;99.90
7000;DHT22;3540;53.242;10.408;2023-12-07T06:03:13;1.30;99.90
7000;DHT22;3540;53.242;10.408;2023-12-07T06:05:39;1.30;99.90
7000;DHT22;3540;53.242;10.408;2023-12-07T06:08:05;1.20;99.90
7000;DHT22;3540;53.242;10.408;2023-12-07T06:10:30;1.20;99.90
7000;DHT22;3540;53.242;10.408;2023-12-07T06:12:56;1.20;99.90
7000;DHT22;3540;53.242;10.408;2023-12-07T06:15:24;1.20;99.90
7000;DHT22;3540;53.242;10.408;2023-12-07T06:17:49;1.20;99.90
7000;DHT22;3540;53.242;10.408;2023-12-07T06:20:15;1.30;99.90
7000;DHT22;3540;53.242;10.408;2023-12-07T06:22:41;1.30;99.90
7000;DHT22;3540;53.242;10.408;2023-12-07T06:25:07;1.30;99.90
7000;DHT22;3540;53.242;10.408;2023-12-07T06:27:35;1.30;99.90
7000;DHT22;3540;53.242;10.408;2023-12-07T06:30:00;1.30;99.90
7000;DHT22;3540;53.242;10.408;2023-12-07T06:32:26;1.30;99.90
7000;DHT22;3540;53.242;10.408;2023-12-07T06:34:51;1.30;99.90
7000;DHT22;3540;53.242;10.408;2023-12-07T06:37:17;1.20;99.90
7000;DHT22;3540;53.242;10.408;2023-12-07T06:39:43;1.30;99.90
7000;DHT22;3540;53.242;10.408;2023-12-07T06:42:08;1.30;99.90
7000;DHT22;3540;53.242;10.408;2023-12-07T06:44:34;1.30;99.90
7000;DHT22;3540;53.242;10.408;2023-12-07T06:47:00;1.30;99.90
7000;DHT22;3540;53.242;10.408;2023-12-07T06:49:28;1.30;99.90
7000;DHT22;3540;53.242;10.408;2023-12-07T06:51:54;1.30;99.90
7000;DHT22;3540;53.242;10.408;2023-12-07T06:54:19;1.30;99.90
7000;DHT22;3540;53.242;10.408;2023-12-07T06:56:45;1.30;99.90
7000;DHT22;3540;53.242;10.408;2023-12-07T06:59:11;1.30;99.90
7000;DHT22;3540;53.242;10.408;2023-12-07T07:01:37;1.30;99.90
7000;DHT22;3540;53.242;10.408;2023-12-07T07:04:04;1.40;99.90
7000;DHT22;3540;53.242;10.408;2023-12-07T07:06:29;1.30;99.90
7000;DHT22;3540;53.242;10.408;2023-12-07T07:08:55;1.30;99.90
7000;DHT22;3540;53.242;10.408;2023-12-07T07:11:21;1.30;99.90
7000;DHT22;3540;53.242;10.408;2023-12-07T07:13:46;1.30;99.90
7000;DHT22;3540;53.242;10.408;2023-12-07T07:16:12;1.30;99.90
7000;DHT22;3540;53.242;10.408;2023-12-07T07:18:38;1.30;99.90
7000;DHT22;3540;53.242;10.408;2023-12-07T07:21:04;1.30;99.90
7000;DHT22;3540;53.242;10.408;2023-12-07T07:23:30;1.30;99.90
7000;DHT22;3540;53.242;10.408;2023-12-07T07:25:55;1.30;99.90
7000;DHT22;3540;53.242;10.408;2023-12-07T07:28:22;1.30;99.90
7000;DHT22;3540;53.242;10.408;2023-12-07T07:30:47;1.30;99.90
7000;DHT22;3540;53.242;10.408;2023-12-07T07:33:13;1.30;99.90
7000;DHT22;3540;53.242;10.408;2023-12-07T07:35:39;1.30;99.90
7000;DHT22;3540;53.242;10.408;2023-12-07T07:38:04;1.30;99.90
7000;DHT22;3540;53.242;10.408;2023-12-07T07:40:30;1.40;99.90
7000;DHT22;3540;53.242;10.408;2023-12-07T07:42:55;1.40;99.90
7000;DHT22;3540;53.242;10.408;2023-12-07T07:45:21;1.50;99.90
7000;DHT22;3540;53.242;10.408;2023-12-07T07:47:47;1.40;99.90
7000;DHT22;3540;53.242;10.408;2023-12-07T07:50:13;1.40;99.90
7000;DHT22;3540;53.242;10.408;2023-12-07T07:52:39;1.40;99.90
7000;DHT22;3540;53.242;10.408;2023-12-07T07:55:06;1.30;99.90
7000;DHT22;3540;53.242;10.408;2023-12-07T07:57:32;1.40;99.90
7000;DHT22;3540;53.242;10.408;2023-12-07T07:59:58;1.30;99.90
7000;DHT22;3540;53.242;10.408;2023-12-07T08:02:24;1.30;99.90
7000;DHT22;3540;53.242;10.408;2023-12-07T08:04:50;1.30;99.90
7000;DHT22;3540;53.242;10.408;2023-12-07T08:07:17;1.40;99.90
7000;DHT22;3540;53.242;10.408;2023-12-07T08:09:42;1.40;99.90
7000;DHT22;3540;53.242;10.408;2023-12-07T08:12:08;1.40;99.90
7000;DHT22;3540;53.242;10.408;2023-12-07T08:14:37;1.50;99.90
7000;DHT22;3540;53.242;10.408;2023-12-07T08:17:03;1.50;99.90
7000;DHT22;3540;53.242;10.408;2023-12-07T08:19:29;1.50;99.90
7000;DHT22;3540;53.242;10.408;2023-12-07T08:21:55;1.50;99.90
7000;DHT22;3540;53.242;10.408;2023-12-07T08:24:20;1.50;99.90
7000;DHT22;3540;53.242;10.408;2023-12-07T08:26:46;1.50;99.90
7000;DHT22;3540;53.242;10.408;2023-12-07T08:29:12;1.60;99.90
7000;DHT22;3540;53.242;10.408;2023-12-07T08:31:39;1.60;99.90
7000;DHT22;3540;53.242;10.408;2023-12-07T08:34:05;1.70;99.90
7000;DHT22;3540;53.242;10.408;2023-12-07T08:36:31;1.70;99.90
7000;DHT22;3540;53.242;10.408;2023-12-07T08:38:56;1.70;99.90
7000;DHT22;3540;53.242;10.408;2023-12-07T08:41:22;1.70;99.90
7000;DHT22;3540;53.242;10.408;2023-12-07T08:43:48;1.70;99.90
7000;DHT22;3540;53.242;10.408;2023-12-07T08:46:14;1.70;99.90
7000;DHT22;3540;53.242;10.408;2023-12-07T08:48:40;1.70;99.90
7000;DHT22;3540;53.242;10.408;2023-12-07T08:51:06;1.70;99.90
7000;DHT22;3540;53.242;10.408;2023-12-07T08:53:34;1.70;99.90
7000;DHT22;3540;53.242;10.408;2023-12-07T08:56:01;1.80;99.90
7000;DHT22;3540;53.242;10.408;2023-12-07T08:58:27;1.80;99.90
7000;DHT22;3540;53.242;10.408;2023-12-07T09:00:52;1.80;99.90
7000;DHT22;3540;53.242;10.408;2023-12-07T09:03:18;1.90;99.90
7000;DHT22;3540;53.242;10.408;2023-12-07T09:05:43;1.90;99.90
7000;DHT22;3540;53.242;10.408;2023-12-07T09:08:09;2.00;99.90
7000;DHT22;3540;53.242;10.408;2023-12-07T09:10:35;2.00;99.90
7000;DHT22;3540;53.242;10.408;2023-12-07T09:13:01;2.00;99.90
7000;DHT22;3540;53.242;10.408;2023-12-07T09:15:26;2.00;99.90
7000;DHT22;3540;53.242;10.408;2023-12-07T09:17:52;2.00;99.90
7000;DHT22;3540;53.242;10.408;2023-12-07T09:20:18;2.00;99.90
7000;DHT22;3540;53.242;10.408;2023-12-07T09:22:45;2.00;99.90
7000;DHT22;3540;53.242;10.408;2023-12-07T09:25:11;2.10;99.90
7000;DHT22;3540;53.242;10.408;2023-12-07T09:27:38;2.10;99.90
7000;DHT22;3540;53.242;10.408;2023-12-07T09:30:08;2.20;99.90
7000;DHT22;3540;53.242;10.408;2023-12-07T09:32:40;2.20;99.90
7000;DHT22;3540;53.242;10.408;2023-12-07T09:35:06;2.30;99.90
7000;DHT22;3540;53.242;10.408;2023-12-07T09:37:33;2.40;99.90
7000;DHT22;3540;53.242;10.408;2023-12-07T09:39:59;2.40;99.90
7000;DHT22;3540;53.242;10.408;2023-12-07T09:42:25;2.40;99.90
7000;DHT22;3540;53.242;10.408;2023-12-07T09:44:51;2.50;99.90
7000;DHT22;3540;53.242;10.408;2023-12-07T09:47:17;2.40;99.90
7000;DHT22;3540;53.242;10.408;2023-12-07T09:49:43;2.50;99.90
7000;DHT22;3540;53.242;10.408;2023-12-07T09:52:10;2.50;99.90
7000;DHT22;3540;53.242;10.408;2023-12-07T09:54:40;2.40;99.90
7000;DHT22;3540;53.242;10.408;2023-12-07T09:57:07;2.50;99.90
7000;DHT22;3540;53.242;10.408;2023-12-07T09:59:35;2.50;99.90
7000;DHT22;3540;53.242;10.408;2023-12-07T10:02:01;2.50;99.90
7000;DHT22;3540;53.242;10.408;2023-12-07T10:04:27;2.40;99.90
7000;DHT22;3540;53.242;10.408;2023-12-07T10:06:53;2.40;99.90
7000;DHT22;3540;53.242;10.408;2023-12-07T10:09:19;2.40;99.90
7000;DHT22;3540;53.242;10.408;2023-12-07T10:11:47;2.40;99.90
7000;DHT22;3540;53.242;10.408;2023-12-07T10:14:13;2.50;99.90
7000;DHT22;3540;53.242;10.408;2023-12-07T10:16:53;2.50;99.90
7000;DHT22;3540;53.242;10.408;2023-12-07T10:19:21;2.50;99.90
7000;DHT22;3540;53.242;10.408;2023-12-07T10:21:51;2.40;99.90
7000;DHT22;3540;53.242;10.408;2023-12-07T10:24:22;2.40;99.90
7000;DHT22;3540;53.242;10.408;2023-12-07T10:26:48;2.40;99.90
7000;DHT22;3540;53.242;10.408;2023-12-07T10:29:14;2.40;99.90
7000;DHT22;3540;53.242;10.408;2023-12-07T10:31:42;2.50;99.90
7000;DHT22;3540;53.242;10.408;2023-12-07T10:34:09;2.50;99.90
7000;DHT22;3540;53.242;10.408;2023-12-07T10:36:35;2.70;99.90
7000;DHT22;3540;53.242;10.408;2023-12-07T10:39:01;2.70;99.90
7000;DHT22;3540;53.242;10.408;2023-12-07T10:41:26;2.70;99.90
7000;DHT22;3540;53.242;10.408;2023-12-07T10:43:59;2.90;99.90
7000;DHT22;3540;53.242;10.408;2023-12-07T10:46:26;2.90;99.90
7000;DHT22;3540;53.242;10.408;2023-12-07T10:48:59;2.90;99.90
7000;DHT22;3540;53.242;10.408;2023-12-07T10:54:16;2.90;99.90
7000;DHT22;3540;53.242;10.408;2023-12-07T10:56:48;2.80;99.90
7000;DHT22;3540;53.242;10.408;2023-12-07T10:59:16;2.80;99.90
7000;DHT22;3540;53.242;10.408;2023-12-07T11:01:43;2.80;99.90
7000;DHT22;3540;53.242;10.408;2023-12-07T11:04:13;2.90;99.90
7000;DHT22;3540;53.242;10.408;2023-12-07T11:06:40;2.90;99.90
7000;DHT22;3540;53.242;10.408;2023-12-07T11:09:09;2.80;99.90
7000;DHT22;3540;53.242;10.408;2023-12-07T11:14:11;2.70;99.90
7000;DHT22;3540;53.242;10.408;2023-12-07T11:16:42;2.70;99.90
7000;DHT22;3540;53.242;10.408;2023-12-07T11:19:44;2.80;99.90
7000;DHT22;3540;53.242;10.408;2023-12-07T11:22:11;2.80;99.90
7000;DHT22;3540;53.242;10.408;2023-12-07T11:24:53;2.90;99.90
7000;DHT22;3540;53.242;10.408;2023-12-07T11:27:22;2.90;99.90
7000;DHT22;3540;53.242;10.408;2023-12-07T11:29:48;2.80;99.90
7000;DHT22;3540;53.242;10.408;2023-12-07T11:32:13;2.80;99.90
7000;DHT22;3540;53.242;10.408;2023-12-07T11:34:41;2.80;99.90
7000;DHT22;3540;53.242;10.408;2023-12-07T11:37:13;2.90;99.90
7000;DHT22;3540;53.242;10.408;2023-12-07T11:39:41;2.90;99.90
7000;DHT22;3540;53.242;10.408;2023-12-07T11:42:17;2.90;99.90
7000;DHT22;3540;53.242;10.408;2023-12-07T11:44:44;2.90;99.90
7000;DHT22;3540;53.242;10.408;2023-12-07T11:47:16;2.90;99.90
7000;DHT22;3540;53.242;10.408;2023-12-07T11:49:43;2.90;99.90
7000;DHT22;3540;53.242;10.408;2023-12-07T11:52:19;2.90;99.90
7000;DHT22;3540;53.242;10.408;2023-12-07T11:54:45;2.90;99.90
7000;DHT22;3540;53.242;10.408;2023-12-07T11:57:13;2.90;99.90
7000;DHT22;3540;53.242;10.408;2023-12-07T11:59:38;2.90;99.90
7000;DHT22;3540;53.242;10.408;2023-12-07T12:02:04;3.00;99.90
7000;DHT22;3540;53.242;10.408;2023-12-07T12:04:30;3.00;99.90
7000;DHT22;3540;53.242;10.408;2023-12-07T12:06:56;3.10;99.90
7000;DHT22;3540;53.242;10.408;2023-12-07T12:09:24;3.00;99.90
7000;DHT22;3540;53.242;10.408;2023-12-07T12:11:50;3.00;99.90
7000;DHT22;3540;53.242;10.408;2023-12-07T12:14:16;3.00;99.90
7000;DHT22;3540;53.242;10.408;2023-12-07T12:16:43;3.00;99.90
7000;DHT22;3540;53.242;10.408;2023-12-07T12:19:09;3.00;99.90
7000;DHT22;3540;53.242;10.408;2023-12-07T12:21:38;3.00;99.90
7000;DHT22;3540;53.242;10.408;2023-12-07T12:24:05;3.00;99.90
7000;DHT22;3540;53.242;10.408;2023-12-07T12:26:33;3.00;99.90
7000;DHT22;3540;53.242;10.408;2023-12-07T12:29:01;3.10;99.90
7000;DHT22;3540;53.242;10.408;2023-12-07T12:31:27;3.20;99.90
7000;DHT22;3540;53.242;10.408;2023-12-07T12:33:53;3.20;99.90
7000;DHT22;3540;53.242;10.408;2023-12-07T12:36:19;3.20;99.90
7000;DHT22;3540;53.242;10.408;2023-12-07T12:38:49;3.20;99.90
7000;DHT22;3540;53.242;10.408;2023-12-07T12:41:22;3.20;99.90
7000;DHT22;3540;53.242;10.408;2023-12-07T12:43:48;3.20;99.90
7000;DHT22;3540;53.242;10.408;2023-12-07T12:46:15;3.10;99.90
7000;DHT22;3540;53.242;10.408;2023-12-07T12:48:58;3.20;99.90
7000;DHT22;3540;53.242;10.408;2023-12-07T12:51:26;3.20;99.90
7000;DHT22;3540;53.242;10.408;2023-12-07T12:53:52;3.10;99.90
7000;DHT22;3540;53.242;10.408;2023-12-07T12:56:19;3.10;99.90
7000;DHT22;3540;53.242;10.408;2023-12-07T12:58:49;3.10;99.90
7000;DHT22;3540;53.242;10.408;2023-12-07T13:01:16;3.10;99.90
7000;DHT22;3540;53.242;10.408;2023-12-07T13:03:46;3.10;99.90
7000;DHT22;3540;53.242;10.408;2023-12-07T13:06:16;3.10;99.90
7000;DHT22;3540;53.242;10.408;2023-12-07T13:08:46;3.10;99.90
7000;DHT22;3540;53.242;10.408;2023-12-07T13:11:18;3.00;99.90
7000;DHT22;3540;53.242;10.408;2023-12-07T13:13:45;3.00;99.90
7000;DHT22;3540;53.242;10.408;2023-12-07T13:16:12;2.90;99.90
7000;DHT22;3540;53.242;10.408;2023-12-07T13:18:40;2.90;99.90
7000;DHT22;3540;53.242;10.408;2023-12-07T13:21:06;2.90;99.90
7000;DHT22;3540;53.242;10.408;2023-12-07T13:23:31;2.80;99.90
7000;DHT22;3540;53.242;10.408;2023-12-07T13:25:57;2.80;99.90
7000;DHT22;3540;53.242;10.408;2023-12-07T13:28:22;2.80;99.90
7000;DHT22;3540;53.242;10.408;2023-12-07T13:30:48;2.80;99.90
7000;DHT22;3540;53.242;10.408;2023-12-07T13:33:14;2.80;99.90
7000;DHT22;3540;53.242;10.408;2023-12-07T13:35:40;2.80;99.90
7000;DHT22;3540;53.242;10.408;2023-12-07T13:38:05;2.70;99.90
7000;DHT22;3540;53.242;10.408;2023-12-07T13:40:31;2.70;99.90
7000;DHT22;3540;53.242;10.408;2023-12-07T13:42:56;2.70;99.90
7000;DHT22;3540;53.242;10.408;2023-12-07T13:45:22;2.70;99.90
7000;DHT22;3540;53.242;10.408;2023-12-07T13:47:48;2.70;99.90
7000;DHT22;3540;53.242;10.408;2023-12-07T13:50:13;2.70;99.90
7000;DHT22;3540;53.242;10.408;2023-12-07T13:52:39;2.70;99.90
7000;DHT22;3540;53.242;10.408;2023-12-07T13:55:05;2.70;99.90
7000;DHT22;3540;53.242;10.408;2023-12-07T13:57:31;2.70;99.90
7000;DHT22;3540;53.242;10.408;2023-12-07T13:59:57;2.70;99.90
7000;DHT22;3540;53.242;10.408;2023-12-07T14:02:23;2.70;99.90
7000;DHT22;3540;53.242;10.408;2023-12-07T14:04:49;2.60;99.90
7000;DHT22;3540;53.242;10.408;2023-12-07T14:07:16;2.60;99.90
7000;DHT22;3540;53.242;10.408;2023-12-07T14:09:47;2.60;99.90
7000;DHT22;3540;53.242;10.408;2023-12-07T14:12:15;2.60;99.90
7000;DHT22;3540;53.242;10.408;2023-12-07T14:14:45;2.60;99.90
7000;DHT22;3540;53.242;10.408;2023-12-07T14:17:15;2.50;99.90
7000;DHT22;3540;53.242;10.408;2023-12-07T14:19:41;2.50;99.90
7000;DHT22;3540;53.242;10.408;2023-12-07T14:22:07;2.50;99.90
7000;DHT22;3540;53.242;10.408;2023-12-07T14:24:36;2.40;99.90
7000;DHT22;3540;53.242;10.408;2023-12-07T14:27:03;2.40;99.90
7000;DHT22;3540;53.242;10.408;2023-12-07T14:29:29;2.40;99.90
7000;DHT22;3540;53.242;10.408;2023-12-07T14:31:55;2.40;99.90
7000;DHT22;3540;53.242;10.408;2023-12-07T14:34:21;2.40;99.90
7000;DHT22;3540;53.242;10.408;2023-12-07T14:36:46;2.40;99.90
7000;DHT22;3540;53.242;10.408;2023-12-07T14:39:13;2.40;99.90
7000;DHT22;3540;53.242;10.408;2023-12-07T14:41:46;2.40;99.90
7000;DHT22;3540;53.242;10.408;2023-12-07T14:44:16;2.40;99.90
7000;DHT22;3540;53.242;10.408;2023-12-07T14:46:46;2.30;99.90
7000;DHT22;3540;53.242;10.408;2023-12-07T14:49:13;2.30;99.90
7000;DHT22;3540;53.242;10.408;2023-12-07T14:51:39;2.30;99.90
7000;DHT22;3540;53.242;10.408;2023-12-07T14:54:05;2.30;99.90
7000;DHT22;3540;53.242;10.408;2023-12-07T14:56:32;2.30;99.90
7000;DHT22;3540;53.242;10.408;2023-12-07T14:59:00;2.30;99.90
7000;DHT22;3540;53.242;10.408;2023-12-07T15:01:25;2.20;99.90
7000;DHT22;3540;53.242;10.408;2023-12-07T15:03:51;2.20;99.90
7000;DHT22;3540;53.242;10.408;2023-12-07T15:06:17;2.20;99.90
7000;DHT22;3540;53.242;10.408;2023-12-07T15:08:43;2.20;99.90
7000;DHT22;3540;53.242;10.408;2023-12-07T15:11:09;2.20;99.90
7000;DHT22;3540;53.242;10.408;2023-12-07T15:13:35;2.20;99.90
7000;DHT22;3540;53.242;10.408;2023-12-07T15:16:01;2.20;99.90
7000;DHT22;3540;53.242;10.408;2023-12-07T15:18:29;2.10;99.90
7000;DHT22;3540;53.242;10.408;2023-12-07T15:20:56;2.20;99.90
7000;DHT22;3540;53.242;10.408;2023-12-07T15:23:22;2.20;99.90
7000;DHT22;3540;53.242;10.408;2023-12-07T15:25:48;2.10;99.90
7000;DHT22;3540;53.242;10.408;2023-12-07T15:28:13;2.20;99.90
7000;DHT22;3540;53.242;10.408;2023-12-07T15:30:40;2.10;99.90
7000;DHT22;3540;53.242;10.408;2023-12-07T15:33:05;2.10;99.90
7000;DHT22;3540;53.242;10.408;2023-12-07T15:35:32;2.10;99.90
7000;DHT22;3540;53.242;10.408;2023-12-07T15:37:57;2.10;99.90
7000;DHT22;3540;53.242;10.408;2023-12-07T15:40:23;2.10;99.90
7000;DHT22;3540;53.242;10.408;2023-12-07T15:42:49;2.10;99.90
7000;DHT22;3540;53.242;10.408;2023-12-07T15:45:15;2.10;99.90
7000;DHT22;3540;53.242;10.408;2023-12-07T15:47:41;2.10;99.90
7000;DHT22;3540;53.242;10.408;2023-12-07T15:50:07;2.00;99.90
7000;DHT22;3540;53.242;10.408;2023-12-07T15:52:32;2.00;99.90
7000;DHT22;3540;53.242;10.408;2023-12-07T15:54:59;2.00;99.90
7000;DHT22;3540;53.242;10.408;2023-12-07T15:57:24;2.00;99.90
7000;DHT22;3540;53.242;10.408;2023-12-07T15:59:50;2.00;99.90
7000;DHT22;3540;53.242;10.408;2023-12-07T16:02:16;2.00;99.90
7000;DHT22;3540;53.242;10.408;2023-12-07T16:04:43;2.00;99.90
7000;DHT22;3540;53.242;10.408;2023-12-07T16:07:09;2.00;99.90
7000;DHT22;3540;53.242;10.408;2023-12-07T16:09:35;2.00;99.90